Time;durP1;ratioP1;P1;durP2;ratioP2;P2;SDS_P1;SDS_P2;PMS_P1;PMS_P2;Temp;Humidity;BMP_temperature;BMP_pressure;BME280_temperature;BME280_humidity;BME280_pressure;Samples;Min_cycle;Max_cycle;Signal;HPM_P1;HPM_P2
2024/03/26 00:01:36;;;;;;;4.03;2.00;;;11.80;90.80;;;;;;5078604;28;20418;-27
2024/03/26 00:04:02;;;;;;;4.27;2.33;;;11.80;90.80;;;;;;5078200;28;20504;-30
2024/03/26 00:06:31;;;;;;;3.80;2.17;;;11.80;90.80;;;;;;5076462;28;20219;-31
2024/03/26 00:08:57;;;;;;;3.23;1.90;;;11.80;90.90;;;;;;5076550;28;21034;-29
2024/03/26 00:11:24;;;;;;;3.40;2.00;;;11.80;90.90;;;;;;5077641;28;20428;-27
2024/03/26 00:13:50;;;;;;;3.00;1.80;;;11.80;91.00;;;;;;5060204;28;20496;-27
2024/03/26 00:16:16;;;;;;;3.57;2.00;;;11.80;91.00;;;;;;5076212;28;20436;-31
2024/03/26 00:18:46;;;;;;;3.03;1.93;;;11.80;91.00;;;;;;5075881;28;20951;-30
2024/03/26 00:21:12;;;;;;;3.27;1.97;;;11.70;91.00;;;;;;5078414;28;20432;-30
2024/03/26 00:23:38;;;;;;;3.30;1.80;;;11.80;91.10;;;;;;5078270;28;20429;-33
2024/03/26 00:26:10;;;;;;;3.47;2.20;;;11.70;91.10;;;;;;5071918;28;20421;-29
2024/03/26 00:28:36;;;;;;;3.00;2.10;;;11.70;91.10;;;;;;5078751;28;20453;-29
2024/03/26 00:31:04;;;;;;;3.10;1.80;;;11.70;91.10;;;;;;5077365;28;21307;-30
2024/03/26 00:33:33;;;;;;;4.80;1.80;;;11.70;91.10;;;;;;5078381;28;20476;-29
2024/03/26 00:35:59;;;;;;;3.57;2.17;;;11.70;91.20;;;;;;5079729;28;20429;-28
2024/03/26 00:38:26;;;;;;;3.03;2.20;;;11.70;91.20;;;;;;5081925;28;20445;-30
2024/03/26 00:40:52;;;;;;;3.47;2.07;;;11.70;91.20;;;;;;5080994;28;20472;-28
2024/03/26 00:43:23;;;;;;;4.50;2.03;;;11.70;91.20;;;;;;5080234;28;20429;-28
2024/03/26 00:45:49;;;;;;;3.30;1.97;;;11.70;91.20;;;;;;5082776;28;20508;-28
2024/03/26 00:48:15;;;;;;;4.13;1.87;;;11.70;91.20;;;;;;5082540;28;20530;-29
2024/03/26 00:50:42;;;;;;;2.53;1.63;;;11.60;91.20;;;;;;5083914;28;20433;-34
2024/03/26 00:53:11;;;;;;;4.00;2.07;;;11.70;91.30;;;;;;5064764;28;20481;-32
2024/03/26 00:55:38;;;;;;;2.50;1.80;;;11.60;91.30;;;;;;5076035;28;20440;-30
2024/03/26 00:58:06;;;;;;;4.90;2.13;;;11.60;91.30;;;;;;5083084;28;20982;-29
2024/03/26 01:00:33;;;;;;;3.97;2.50;;;11.60;91.30;;;;;;5083417;28;20429;-31
2024/03/26 01:02:59;;;;;;;1.97;1.70;;;11.60;91.30;;;;;;5064583;28;20472;-30
2024/03/26 01:05:25;;;;;;;2.77;2.10;;;11.60;91.40;;;;;;5082606;28;20522;-30
2024/03/26 01:07:51;;;;;;;2.60;2.10;;;11.60;91.40;;;;;;5080771;28;20468;-31
2024/03/26 01:10:19;;;;;;;2.53;1.80;;;11.60;91.40;;;;;;5081480;28;20331;-32
2024/03/26 01:12:45;;;;;;;3.53;2.20;;;11.60;91.40;;;;;;5080134;28;20820;-30
2024/03/26 01:15:13;;;;;;;1.87;1.67;;;11.60;91.40;;;;;;5082002;28;20425;-32
2024/03/26 01:17:39;;;;;;;2.87;1.73;;;11.60;91.50;;;;;;5081456;28;20448;-33
2024/03/26 01:20:10;;;;;;;4.50;2.10;;;11.60;91.50;;;;;;5082502;28;20433;-30
2024/03/26 01:22:39;;;;;;;5.30;1.67;;;11.50;91.40;;;;;;5082873;28;20425;-31
2024/03/26 01:25:07;;;;;;;5.23;2.20;;;11.50;91.50;;;;;;5080551;28;20469;-32
2024/03/26 01:27:34;;;;;;;4.17;1.77;;;11.50;91.50;;;;;;5081973;28;21263;-33
2024/03/26 01:30:00;;;;;;;3.03;1.63;;;11.50;91.50;;;;;;5080567;28;20437;-28
2024/03/26 01:32:26;;;;;;;5.90;2.27;;;11.50;91.50;;;;;;5081248;28;21192;-30
2024/03/26 01:34:52;;;;;;;3.60;2.10;;;11.50;91.50;;;;;;5082073;28;20207;-30
2024/03/26 01:37:19;;;;;;;5.73;1.90;;;11.50;91.50;;;;;;5082334;28;20478;-32
2024/03/26 01:39:46;;;;;;;6.73;2.17;;;11.50;91.40;;;;;;5079022;28;20498;-30
2024/03/26 01:42:14;;;;;;;2.40;1.73;;;11.50;91.40;;;;;;5071267;28;20417;-29
2024/03/26 01:44:44;;;;;;;1.80;1.60;;;11.50;91.40;;;;;;5079428;28;20456;-27
2024/03/26 01:47:10;;;;;;;2.90;2.07;;;11.40;91.30;;;;;;5062554;28;20441;-28
2024/03/26 01:49:36;;;;;;;3.30;1.93;;;11.40;91.30;;;;;;5081241;28;20425;-28
2024/03/26 01:52:03;;;;;;;2.33;1.80;;;11.40;91.30;;;;;;5081329;28;20445;-32
2024/03/26 01:54:29;;;;;;;2.00;1.80;;;11.40;91.20;;;;;;5081339;28;20545;-31
2024/03/26 01:56:57;;;;;;;3.17;2.00;;;11.40;91.10;;;;;;5079999;28;20898;-30
2024/03/26 01:59:24;;;;;;;3.50;2.10;;;11.40;91.10;;;;;;5063308;28;20620;-31
2024/03/26 02:01:55;;;;;;;2.13;1.60;;;11.40;91.10;;;;;;5079136;28;20425;-28
2024/03/26 02:04:21;;;;;;;5.13;2.60;;;11.40;91.00;;;;;;5079503;28;20492;-30
2024/03/26 02:06:47;;;;;;;3.77;1.80;;;11.40;90.90;;;;;;5080277;28;20490;-32
2024/03/26 02:09:14;;;;;;;2.87;1.70;;;11.40;90.90;;;;;;5062689;28;20441;-31
2024/03/26 02:11:41;;;;;;;2.77;2.20;;;11.40;91.00;;;;;;5078227;28;20457;-29
2024/03/26 02:14:10;;;;;;;4.00;1.77;;;11.40;91.00;;;;;;5080566;28;20464;-30
2024/03/26 02:16:36;;;;;;;4.13;2.07;;;11.40;91.00;;;;;;5046828;28;20416;-29
2024/03/26 02:19:02;;;;;;;4.37;2.20;;;11.40;91.00;;;;;;5075903;28;20449;-27
2024/03/26 02:21:31;;;;;;;2.07;1.70;;;11.30;91.00;;;;;;5078142;28;20187;-28
2024/03/26 02:23:58;;;;;;;1.80;1.67;;;11.30;90.90;;;;;;5063045;28;20516;-28
2024/03/26 02:26:25;;;;;;;1.73;1.57;;;11.30;90.90;;;;;;5073382;28;20425;-28
2024/03/26 02:28:54;;;;;;;3.80;2.10;;;11.30;90.90;;;;;;5080115;28;20440;-29
2024/03/26 02:31:21;;;;;;;2.07;1.70;;;11.30;90.90;;;;;;5081308;28;20433;-30
2024/03/26 02:33:49;;;;;;;6.10;2.10;;;11.30;90.90;;;;;;5079187;28;20530;-29
2024/03/26 02:36:17;;;;;;;3.37;1.90;;;11.30;91.00;;;;;;5079446;28;20449;-28
2024/03/26 02:38:43;;;;;;;2.90;1.90;;;11.30;91.00;;;;;;5059198;28;20438;-30
2024/03/26 02:41:09;;;;;;;2.20;2.00;;;11.30;91.00;;;;;;5079589;28;20422;-28
2024/03/26 02:43:35;;;;;;;3.03;1.93;;;11.30;90.90;;;;;;5080936;28;20441;-30
2024/03/26 02:46:03;;;;;;;2.40;2.07;;;11.30;90.90;;;;;;5081658;28;20499;-32
2024/03/26 02:48:31;;;;;;;4.10;2.00;;;11.30;90.90;;;;;;5080943;28;20445;-27
2024/03/26 02:51:01;;;;;;;3.63;1.70;;;11.30;90.90;;;;;;5081575;28;20445;-27
2024/03/26 02:53:28;;;;;;;1.87;1.67;;;11.30;90.90;;;;;;5073983;28;20481;-28
2024/03/26 02:55:58;;;;;;;2.27;1.90;;;11.30;90.90;;;;;;5081934;28;20473;-29
2024/03/26 02:58:26;;;;;;;2.10;1.90;;;11.30;90.90;;;;;;5060690;28;20460;-30
2024/03/26 03:00:52;;;;;;;2.60;1.57;;;11.30;90.80;;;;;;5081670;28;20475;-30
2024/03/26 03:03:20;;;;;;;2.00;1.80;;;11.30;90.90;;;;;;5079057;28;20474;-30
2024/03/26 03:05:45;;;;;;;2.83;1.97;;;11.20;90.70;;;;;;5080317;28;20421;-28
2024/03/26 03:08:13;;;;;;;4.17;2.00;;;11.20;90.70;;;;;;5079646;28;20486;-31
2024/03/26 03:10:40;;;;;;;6.00;1.70;;;11.20;90.70;;;;;;5061595;28;20452;-31
2024/03/26 03:13:08;;;;;;;2.67;1.77;;;11.20;90.70;;;;;;5060851;28;20504;-29
2024/03/26 03:15:34;;;;;;;3.27;1.73;;;11.20;90.70;;;;;;5060744;28;20924;-32
2024/03/26 03:18:01;;;;;;;2.50;1.77;;;11.20;90.70;;;;;;5080374;28;20473;-28
2024/03/26 03:20:31;;;;;;;2.20;1.67;;;11.20;90.60;;;;;;5081307;28;20435;-27
2024/03/26 03:22:57;;;;;;;4.47;1.60;;;11.20;90.60;;;;;;5079694;28;20979;-28
2024/03/26 03:25:25;;;;;;;2.90;1.90;;;11.20;90.70;;;;;;5080495;28;20421;-30
2024/03/26 03:28:04;;;;;;;2.90;1.47;;;11.20;90.80;;;;;;5087853;22;20437;-36
2024/03/26 03:30:33;;;;;;;3.67;1.83;;;11.20;90.80;;;;;;4992785;28;20620;-33
2024/03/26 03:33:01;;;;;;;2.90;1.97;;;11.20;90.80;;;;;;4953399;28;20457;-37
2024/03/26 03:35:27;;;;;;;3.37;1.80;;;11.20;90.90;;;;;;4980398;28;20484;-31
2024/03/26 03:37:53;;;;;;;2.77;1.77;;;11.20;90.90;;;;;;4995143;28;20445;-32
2024/03/26 03:40:19;;;;;;;1.70;1.50;;;11.20;90.90;;;;;;4978888;28;20427;-28
2024/03/26 03:42:45;;;;;;;6.30;2.47;;;11.20;90.90;;;;;;4979101;28;20499;-30
2024/03/26 03:45:13;;;;;;;2.10;1.90;;;11.20;91.00;;;;;;4978053;28;20443;-31
2024/03/26 03:47:40;;;;;;;3.43;2.00;;;11.20;91.00;;;;;;4979961;28;20453;-31
2024/03/26 03:50:06;;;;;;;2.40;1.73;;;11.20;90.90;;;;;;4978570;28;21059;-31
2024/03/26 03:52:32;;;;;;;2.50;1.93;;;11.20;90.80;;;;;;4962570;28;20496;-31
2024/03/26 03:55:01;;;;;;;3.10;1.67;;;11.10;90.70;;;;;;4979870;28;20465;-29
2024/03/26 03:57:27;;;;;;;1.57;1.40;;;11.10;90.70;;;;;;4978332;28;20457;-31
2024/03/26 03:59:53;;;;;;;2.03;1.80;;;11.10;90.80;;;;;;4962781;28;20434;-35
2024/03/26 04:02:21;;;;;;;2.07;1.63;;;11.10;90.80;;;;;;4978386;28;20600;-27
2024/03/26 04:04:47;;;;;;;4.07;2.80;;;11.10;90.80;;;;;;4970580;28;20465;-28
2024/03/26 04:07:18;;;;;;;2.80;1.30;;;11.10;90.80;;;;;;4980096;28;20452;-30
2024/03/26 04:09:44;;;;;;;2.30;1.50;;;11.10;90.70;;;;;;4980312;28;20465;-31
2024/03/26 04:12:10;;;;;;;2.00;1.80;;;11.10;90.80;;;;;;4962202;28;20437;-30
2024/03/26 04:14:36;;;;;;;2.53;1.60;;;11.10;90.80;;;;;;4979557;28;20465;-31
2024/03/26 04:17:02;;;;;;;5.23;2.40;;;11.10;90.80;;;;;;4979773;28;20467;-29
2024/03/26 04:19:29;;;;;;;4.30;1.73;;;11.10;90.80;;;;;;4980379;28;20510;-28
2024/03/26 04:21:55;;;;;;;2.77;1.80;;;11.10;90.80;;;;;;4980388;28;20467;-28
2024/03/26 04:24:21;;;;;;;3.03;2.00;;;11.10;90.80;;;;;;4978660;28;20819;-31
2024/03/26 04:26:47;;;;;;;3.03;1.80;;;11.10;90.80;;;;;;4961855;28;20437;-31
2024/03/26 04:29:13;;;;;;;2.23;1.90;;;11.10;90.90;;;;;;4978373;28;20564;-28
2024/03/26 04:31:39;;;;;;;2.57;2.07;;;11.10;90.90;;;;;;4979929;28;20189;-27
2024/03/26 04:34:07;;;;;;;3.20;2.27;;;11.10;90.90;;;;;;4978358;28;20523;-31
2024/03/26 04:36:33;;;;;;;2.33;1.73;;;11.10;91.00;;;;;;4978707;28;20422;-30
2024/03/26 04:39:03;;;;;;;2.40;1.53;;;11.10;91.00;;;;;;4980222;28;20540;-28
2024/03/26 04:41:31;;;;;;;2.20;1.53;;;11.10;91.00;;;;;;4962515;28;20444;-32
2024/03/26 04:43:59;;;;;;;4.00;1.90;;;11.10;91.10;;;;;;4978258;28;20940;-30
2024/03/26 04:46:25;;;;;;;2.80;1.67;;;11.10;91.00;;;;;;4973780;28;20959;-29
2024/03/26 04:48:52;;;;;;;2.30;1.57;;;11.10;91.00;;;;;;4978558;28;20446;-28
2024/03/26 04:51:21;;;;;;;2.00;1.80;;;11.10;90.90;;;;;;4961619;28;20445;-31
2024/03/26 04:53:48;;;;;;;3.23;2.03;;;11.00;90.90;;;;;;4962582;28;20465;-33
2024/03/26 04:56:14;;;;;;;5.00;2.13;;;11.00;90.90;;;;;;4979400;28;21063;-27
2024/03/26 04:58:42;;;;;;;3.40;1.87;;;11.10;91.00;;;;;;4962536;28;20552;-33
2024/03/26 05:01:08;;;;;;;2.30;1.83;;;11.00;90.90;;;;;;4980176;28;20453;-34
2024/03/26 05:03:34;;;;;;;2.50;1.87;;;11.00;90.90;;;;;;4979946;28;20454;-29
2024/03/26 05:06:04;;;;;;;3.43;1.93;;;11.00;90.90;;;;;;4978607;28;20885;-32
2024/03/26 05:08:30;;;;;;;2.17;1.67;;;11.00;90.90;;;;;;4978556;28;21341;-26
2024/03/26 05:10:56;;;;;;;1.97;1.70;;;11.00;90.90;;;;;;4978825;28;20473;-32
2024/03/26 05:13:23;;;;;;;3.03;2.10;;;11.00;90.90;;;;;;4978565;28;21075;-28
2024/03/26 05:15:51;;;;;;;3.77;1.67;;;11.00;90.90;;;;;;4963389;28;20512;-28
2024/03/26 05:18:17;;;;;;;1.67;1.43;;;11.00;90.90;;;;;;4981444;28;20449;-29
2024/03/26 05:20:46;;;;;;;1.77;1.47;;;11.00;91.00;;;;;;4982820;28;20477;-30
2024/03/26 05:23:12;;;;;;;1.93;1.50;;;11.00;91.00;;;;;;4983243;28;20429;-28
2024/03/26 05:25:39;;;;;;;3.07;1.90;;;11.00;91.00;;;;;;4983135;28;20444;-30
2024/03/26 05:28:07;;;;;;;2.20;1.57;;;11.00;91.00;;;;;;4985100;28;20799;-26
2024/03/26 05:30:35;;;;;;;2.50;2.00;;;11.00;90.90;;;;;;4983159;28;20827;-28
2024/03/26 05:33:01;;;;;;;4.40;1.80;;;11.00;91.00;;;;;;4983302;28;20451;-29
2024/03/26 05:35:30;;;;;;;1.70;1.50;;;11.00;91.00;;;;;;4986813;28;21032;-31
2024/03/26 05:37:58;;;;;;;1.87;1.77;;;10.90;91.00;;;;;;4980532;28;21000;-32
2024/03/26 05:40:27;;;;;;;2.03;1.90;;;10.90;90.80;;;;;;4985562;28;20469;-33
2024/03/26 05:42:53;;;;;;;2.60;1.70;;;10.90;90.80;;;;;;4968153;28;20468;-30
2024/03/26 05:45:23;;;;;;;2.40;1.50;;;10.90;90.80;;;;;;4982457;28;20434;-31
2024/03/26 05:47:49;;;;;;;3.10;1.83;;;10.90;90.80;;;;;;4982226;28;20445;-29
2024/03/26 05:50:15;;;;;;;1.80;1.47;;;10.90;90.80;;;;;;4982300;28;20426;-30
2024/03/26 05:52:41;;;;;;;2.80;1.90;;;10.90;90.80;;;;;;4980648;28;20518;-32
2024/03/26 05:55:08;;;;;;;2.53;1.80;;;10.90;90.80;;;;;;4981322;28;20477;-31
2024/03/26 05:57:34;;;;;;;2.90;2.03;;;10.90;90.70;;;;;;4982128;28;20481;-27
2024/03/26 06:00:00;;;;;;;1.87;1.67;;;10.90;90.70;;;;;;4963809;28;21274;-30
2024/03/26 06:02:27;;;;;;;4.40;1.63;;;10.90;90.70;;;;;;4981292;28;20460;-31
2024/03/26 06:04:53;;;;;;;2.67;1.50;;;10.90;90.70;;;;;;4980602;28;20487;-34
2024/03/26 06:07:22;;;;;;;2.63;1.97;;;10.90;90.80;;;;;;4981664;28;20447;-30
2024/03/26 06:09:48;;;;;;;2.43;1.77;;;10.90;90.80;;;;;;4964301;28;20462;-27
2024/03/26 06:12:14;;;;;;;1.70;1.60;;;10.90;90.80;;;;;;4979647;28;20456;-35
2024/03/26 06:14:42;;;;;;;2.53;1.60;;;10.90;90.80;;;;;;4979370;28;20575;-29
2024/03/26 06:17:08;;;;;;;2.30;2.10;;;10.90;90.70;;;;;;4980713;28;20444;-32
2024/03/26 06:19:34;;;;;;;2.30;1.63;;;10.90;90.50;;;;;;4980817;28;20430;-26
2024/03/26 06:22:01;;;;;;;1.93;1.67;;;10.90;90.60;;;;;;4979346;28;20492;-32
2024/03/26 06:24:27;;;;;;;3.20;1.60;;;10.90;90.50;;;;;;4980524;28;20465;-29
2024/03/26 06:26:53;;;;;;;4.17;2.13;;;10.90;90.60;;;;;;4964188;28;20430;-30
2024/03/26 06:29:21;;;;;;;2.77;2.07;;;10.80;90.50;;;;;;4982492;28;20465;-31
2024/03/26 06:31:47;;;;;;;2.70;1.83;;;10.80;90.40;;;;;;4979295;28;20547;-32
2024/03/26 06:34:13;;;;;;;2.70;1.60;;;10.80;90.40;;;;;;4980500;28;20464;-33
2024/03/26 06:36:42;;;;;;;3.37;2.00;;;10.80;90.40;;;;;;4958577;28;20446;-31
2024/03/26 06:39:10;;;;;;;4.70;2.33;;;10.80;90.30;;;;;;4979759;28;20516;-32
2024/03/26 06:41:36;;;;;;;2.27;1.77;;;10.80;90.20;;;;;;4979906;28;20433;-29
2024/03/26 06:44:03;;;;;;;2.50;1.67;;;10.80;90.60;;;;;;4978769;28;20544;-33
2024/03/26 06:46:29;;;;;;;2.30;1.60;;;10.80;90.30;;;;;;4979459;28;20421;-32
2024/03/26 06:48:55;;;;;;;2.33;1.90;;;10.80;90.30;;;;;;4980931;28;20945;-29
2024/03/26 06:51:21;;;;;;;2.20;1.97;;;10.80;90.30;;;;;;4980391;28;20545;-31
2024/03/26 06:53:49;;;;;;;3.33;2.47;;;10.80;90.30;;;;;;4978959;28;20465;-32
2024/03/26 06:56:16;;;;;;;2.30;1.83;;;10.80;90.30;;;;;;4978846;28;21192;-27
2024/03/26 06:58:45;;;;;;;1.87;1.77;;;10.80;90.20;;;;;;4963311;28;20513;-33
2024/03/26 07:01:12;;;;;;;3.27;1.67;;;10.80;90.20;;;;;;4963037;28;20876;-29
2024/03/26 07:03:39;;;;;;;2.20;1.53;;;10.80;90.30;;;;;;4978845;28;20422;-32
2024/03/26 07:06:09;;;;;;;3.80;1.83;;;10.80;90.20;;;;;;4980275;28;20469;-28
2024/03/26 07:08:36;;;;;;;2.17;1.90;;;10.80;90.20;;;;;;4979112;28;20566;-29
2024/03/26 07:11:04;;;;;;;1.63;1.53;;;10.80;90.30;;;;;;4980329;28;20440;-28
2024/03/26 07:13:31;;;;;;;2.70;2.10;;;10.80;90.60;;;;;;4980479;28;20481;-28
2024/03/26 07:15:57;;;;;;;6.23;2.10;;;10.80;90.20;;;;;;4962526;28;20784;-30
2024/03/26 07:18:23;;;;;;;3.33;1.97;;;10.80;90.20;;;;;;4980056;28;21214;-32
2024/03/26 07:20:55;;;;;;;2.07;1.73;;;10.80;90.10;;;;;;4978398;28;20433;-31
2024/03/26 07:23:21;;;;;;;4.80;1.93;;;10.80;90.20;;;;;;4977576;28;20443;-29
2024/03/26 07:25:47;;;;;;;3.27;1.60;;;10.80;90.20;;;;;;4980152;28;20448;-33
2024/03/26 07:28:13;;;;;;;2.30;2.10;;;10.80;90.30;;;;;;4979833;28;20449;-30
2024/03/26 07:30:39;;;;;;;2.93;1.87;;;10.80;90.30;;;;;;4983054;28;20445;-31
2024/03/26 07:33:05;;;;;;;2.10;1.70;;;10.80;90.20;;;;;;4977712;28;20249;-28
2024/03/26 07:35:31;;;;;;;1.90;1.70;;;10.80;90.10;;;;;;4978480;28;20788;-29
2024/03/26 07:37:57;;;;;;;2.10;1.73;;;10.80;90.40;;;;;;4978298;28;20444;-26
2024/03/26 07:40:26;;;;;;;3.77;2.20;;;10.80;90.10;;;;;;4980354;28;20433;-32
2024/03/26 07:42:53;;;;;;;4.37;2.13;;;10.80;90.10;;;;;;4978413;28;20428;-28
2024/03/26 07:45:18;;;;;;;4.33;2.07;;;10.80;90.10;;;;;;4979532;28;20425;-32
2024/03/26 07:47:44;;;;;;;1.97;1.70;;;10.80;90.20;;;;;;4978744;28;21213;-32
2024/03/26 07:50:13;;;;;;;2.17;1.90;;;10.80;90.20;;;;;;4979811;28;20426;-28
2024/03/26 07:52:39;;;;;;;1.73;1.60;;;10.80;90.20;;;;;;4979756;28;20441;-30
2024/03/26 07:55:05;;;;;;;3.43;1.80;;;10.80;90.30;;;;;;4979932;28;20841;-34
2024/03/26 07:57:31;;;;;;;2.37;1.90;;;10.80;90.40;;;;;;4949703;28;20461;-29
2024/03/26 08:00:00;;;;;;;4.00;1.77;;;10.80;90.30;;;;;;4980279;28;20432;-30
2024/03/26 08:02:29;;;;;;;2.97;1.97;;;10.80;90.40;;;;;;4972830;28;21319;-32
2024/03/26 08:04:56;;;;;;;2.77;2.33;;;10.80;90.50;;;;;;4977993;28;20489;-30
2024/03/26 08:07:25;;;;;;;1.53;1.43;;;10.80;90.40;;;;;;4977843;28;20492;-30
2024/03/26 08:09:51;;;;;;;2.87;2.00;;;10.80;90.50;;;;;;4978324;28;20437;-29
2024/03/26 08:12:18;;;;;;;4.00;1.90;;;10.80;90.40;;;;;;4979274;28;21034;-32
2024/03/26 08:14:43;;;;;;;2.20;1.70;;;10.80;90.50;;;;;;4979391;28;20492;-32
2024/03/26 08:17:13;;;;;;;2.10;1.80;;;10.80;90.50;;;;;;4979805;28;20544;-30
2024/03/26 08:19:40;;;;;;;2.60;1.60;;;10.80;90.60;;;;;;4978411;28;21046;-29
2024/03/26 08:22:06;;;;;;;2.10;1.90;;;10.80;90.60;;;;;;4978707;28;20422;-36
2024/03/26 08:24:33;;;;;;;2.50;1.73;;;10.80;90.70;;;;;;4980060;28;20482;-31
2024/03/26 08:26:59;;;;;;;3.07;1.63;;;10.80;90.70;;;;;;4977605;28;20461;-29
2024/03/26 08:29:26;;;;;;;2.37;1.90;;;10.90;90.80;;;;;;4979817;28;20453;-30
2024/03/26 08:31:52;;;;;;;2.50;1.90;;;10.80;90.80;;;;;;4979104;28;20477;-31
2024/03/26 08:34:18;;;;;;;4.43;2.23;;;10.90;90.90;;;;;;4979387;28;20457;-30
2024/03/26 08:36:44;;;;;;;3.50;1.87;;;10.90;90.90;;;;;;4977961;28;20434;-31
2024/03/26 08:39:13;;;;;;;1.83;1.73;;;10.90;90.90;;;;;;4977781;28;20440;-31
2024/03/26 08:41:39;;;;;;;2.30;2.03;;;10.90;91.00;;;;;;4979404;28;20476;-31
2024/03/26 08:44:07;;;;;;;3.67;2.27;;;10.90;91.00;;;;;;4977606;28;20456;-30
2024/03/26 08:46:33;;;;;;;2.33;1.60;;;10.90;91.00;;;;;;4978988;28;20805;-31
2024/03/26 08:48:59;;;;;;;3.00;2.10;;;10.90;91.00;;;;;;4978857;28;20453;-30
2024/03/26 08:51:29;;;;;;;2.30;1.77;;;10.90;91.00;;;;;;4979188;28;20525;-32
2024/03/26 08:53:56;;;;;;;2.67;1.67;;;10.90;91.00;;;;;;4979168;28;20489;-28
2024/03/26 08:56:23;;;;;;;3.50;2.53;;;10.90;90.90;;;;;;4980761;28;20430;-30
2024/03/26 08:58:55;;;;;;;2.70;1.87;;;10.90;91.00;;;;;;4982944;28;20511;-28
2024/03/26 09:01:21;;;;;;;3.43;1.80;;;11.00;91.10;;;;;;4981279;28;21127;-31
2024/03/26 09:03:47;;;;;;;1.90;1.80;;;11.00;91.00;;;;;;4982807;28;20430;-33
2024/03/26 09:06:15;;;;;;;1.87;1.77;;;11.00;91.10;;;;;;4982792;28;20433;-31
2024/03/26 09:08:41;;;;;;;2.90;1.40;;;11.00;91.10;;;;;;4964931;28;20457;-29
2024/03/26 09:11:07;;;;;;;3.30;1.80;;;11.00;91.20;;;;;;4981370;28;20429;-30
2024/03/26 09:13:39;;;;;;;2.80;1.70;;;11.00;91.20;;;;;;4964583;28;21417;-32
2024/03/26 09:16:07;;;;;;;2.83;1.80;;;11.00;91.20;;;;;;4981766;28;20484;-29
2024/03/26 09:18:37;;;;;;;2.80;1.70;;;11.00;91.10;;;;;;4981264;28;20454;-27
2024/03/26 09:21:03;;;;;;;3.13;1.93;;;11.00;91.20;;;;;;4982761;28;20517;-27
2024/03/26 09:23:31;;;;;;;2.33;2.10;;;11.00;91.20;;;;;;4982187;28;20971;-34
2024/03/26 09:25:59;;;;;;;2.10;1.73;;;11.00;91.20;;;;;;4982556;28;20421;-30
2024/03/26 09:28:28;;;;;;;1.87;1.73;;;11.00;91.20;;;;;;4975436;28;20476;-31
2024/03/26 09:30:55;;;;;;;2.03;1.77;;;11.00;91.20;;;;;;4981851;28;20426;-31
2024/03/26 09:33:23;;;;;;;4.03;1.77;;;11.00;91.30;;;;;;4982113;28;21072;-27
2024/03/26 09:35:49;;;;;;;2.30;1.63;;;11.10;91.40;;;;;;4980209;28;20430;-32
2024/03/26 09:38:15;;;;;;;2.30;1.77;;;11.10;91.50;;;;;;4964895;28;20465;-30
2024/03/26 09:40:46;;;;;;;3.40;1.90;;;11.10;91.40;;;;;;4980660;28;20519;-30
2024/03/26 09:43:14;;;;;;;2.70;1.90;;;11.10;91.40;;;;;;4981844;28;20437;-27
2024/03/26 09:45:45;;;;;;;2.80;1.80;;;11.10;91.40;;;;;;4982056;28;20801;-31
2024/03/26 09:48:12;;;;;;;3.60;1.87;;;11.10;91.40;;;;;;4982017;28;20519;-31
2024/03/26 09:50:42;;;;;;;3.87;1.73;;;11.10;91.40;;;;;;4964645;28;20476;-30
2024/03/26 09:53:11;;;;;;;3.37;2.23;;;11.10;91.40;;;;;;4982369;28;20429;-32
2024/03/26 09:55:39;;;;;;;2.50;1.93;;;11.10;91.40;;;;;;4982267;28;20476;-30
2024/03/26 09:58:06;;;;;;;4.37;1.70;;;11.10;91.40;;;;;;4981914;28;20449;-33
2024/03/26 10:00:37;;;;;;;2.40;1.70;;;11.10;91.40;;;;;;4982041;28;20429;-30
2024/03/26 10:03:09;;;;;;;1.90;1.73;;;11.10;91.40;;;;;;4982571;28;20949;-30
2024/03/26 10:05:35;;;;;;;4.97;2.00;;;11.10;91.40;;;;;;4981333;28;20429;-31
2024/03/26 10:08:01;;;;;;;1.97;1.87;;;11.10;91.50;;;;;;4981737;28;20445;-29
2024/03/26 10:10:28;;;;;;;3.30;1.83;;;11.10;91.40;;;;;;4979703;28;20492;-33
2024/03/26 10:12:54;;;;;;;1.90;1.70;;;11.10;91.40;;;;;;4980519;28;21262;-33
2024/03/26 10:15:20;;;;;;;1.97;1.73;;;11.10;91.40;;;;;;4981222;28;20483;-34
2024/03/26 10:17:46;;;;;;;2.90;1.80;;;11.10;91.40;;;;;;4980137;28;20415;-27
2024/03/26 10:20:12;;;;;;;2.87;1.90;;;11.10;91.30;;;;;;4981902;28;20429;-31
2024/03/26 10:22:38;;;;;;;5.10;1.73;;;11.10;91.40;;;;;;4982326;28;20464;-30
2024/03/26 10:25:05;;;;;;;4.23;1.90;;;11.20;91.50;;;;;;4980054;28;20509;-28
2024/03/26 10:27:34;;;;;;;2.00;1.77;;;11.20;91.50;;;;;;4967843;28;20453;-30
2024/03/26 10:30:02;;;;;;;2.60;2.03;;;11.20;91.50;;;;;;4982202;28;20441;-32
2024/03/26 10:32:29;;;;;;;2.60;1.90;;;11.20;91.50;;;;;;4978265;28;20970;-32
2024/03/26 10:35:05;;;;;;;2.23;1.53;;;11.20;91.60;;;;;;4962185;28;20540;-35
2024/03/26 10:37:34;;;;;;;2.10;1.90;;;11.20;91.60;;;;;;4978373;28;20917;-31
2024/03/26 10:40:12;;;;;;;2.80;1.90;;;11.20;91.60;;;;;;4978778;28;20456;-32
2024/03/26 10:42:57;;;;;;;3.23;2.03;;;11.20;91.60;;;;;;4978380;28;20459;-30
2024/03/26 10:45:23;;;;;;;3.20;1.73;;;11.20;91.70;;;;;;4980427;28;20476;-32
2024/03/26 10:47:50;;;;;;;2.10;1.43;;;11.30;91.80;;;;;;4981500;28;20449;-32
2024/03/26 10:50:16;;;;;;;3.03;1.90;;;11.20;91.80;;;;;;4968270;28;20573;-35
2024/03/26 10:52:46;;;;;;;1.87;1.60;;;11.20;91.80;;;;;;4978310;28;20473;-35
2024/03/26 10:55:12;;;;;;;2.43;1.40;;;11.30;92.00;;;;;;4979406;28;20523;-35
2024/03/26 10:57:42;;;;;;;2.60;1.83;;;11.30;91.90;;;;;;4978972;28;20634;-33
2024/03/26 11:00:15;;;;;;;2.83;2.00;;;11.30;92.00;;;;;;4978010;28;20524;-33
2024/03/26 11:02:58;;;;;;;1.87;1.73;;;11.30;92.00;;;;;;4972586;28;20564;-31
2024/03/26 11:05:26;;;;;;;1.83;1.67;;;11.30;92.10;;;;;;4979183;28;20900;-30
2024/03/26 11:07:52;;;;;;;2.30;1.60;;;11.30;92.10;;;;;;4978919;28;20535;-32
2024/03/26 11:10:20;;;;;;;2.30;2.00;;;11.30;92.20;;;;;;4976145;28;20479;-34
2024/03/26 11:12:52;;;;;;;2.73;1.87;;;11.30;92.20;;;;;;4978858;28;20426;-33
2024/03/26 11:15:21;;;;;;;5.53;1.90;;;11.30;92.20;;;;;;4976137;28;20527;-30
2024/03/26 11:18:06;;;;;;;2.40;2.20;;;11.30;92.20;;;;;;4978723;28;20452;-33
2024/03/26 11:20:33;;;;;;;5.30;2.27;;;11.30;92.20;;;;;;4976957;28;20530;-31
2024/03/26 11:23:04;;;;;;;1.87;1.77;;;11.40;92.30;;;;;;4978654;28;20417;-30
2024/03/26 11:25:31;;;;;;;2.80;2.10;;;11.40;92.30;;;;;;4978644;28;20897;-32
2024/03/26 11:28:00;;;;;;;2.20;1.70;;;11.40;92.30;;;;;;4978976;28;20841;-32
2024/03/26 11:30:32;;;;;;;3.07;2.10;;;11.40;92.30;;;;;;4976514;28;21073;-31
2024/03/26 11:33:02;;;;;;;2.10;1.80;;;11.40;92.30;;;;;;4961268;28;20441;-33
2024/03/26 11:35:29;;;;;;;2.63;1.80;;;11.40;92.30;;;;;;4975935;28;20445;-30
2024/03/26 11:37:57;;;;;;;2.40;1.73;;;11.50;92.30;;;;;;4976960;28;20442;-34
2024/03/26 11:40:24;;;;;;;2.10;1.90;;;11.50;92.40;;;;;;4979096;28;20513;-32
2024/03/26 11:42:55;;;;;;;2.73;1.90;;;11.50;92.30;;;;;;4979465;28;20911;-29
2024/03/26 11:45:22;;;;;;;3.10;2.00;;;11.50;92.30;;;;;;4975982;28;20993;-30
2024/03/26 11:47:48;;;;;;;3.03;1.70;;;11.50;92.30;;;;;;4981290;28;20521;-31
2024/03/26 11:50:17;;;;;;;4.33;1.67;;;11.60;92.30;;;;;;4996164;28;21234;-30
2024/03/26 11:52:46;;;;;;;3.30;1.60;;;11.60;92.30;;;;;;4976688;28;20936;-31
2024/03/26 11:55:15;;;;;;;2.30;2.10;;;11.60;92.30;;;;;;4979418;28;20535;-30
2024/03/26 11:57:44;;;;;;;2.90;1.90;;;11.60;92.20;;;;;;4976987;28;20872;-32
2024/03/26 12:00:15;;;;;;;3.43;1.93;;;11.60;92.20;;;;;;4964100;28;20422;-30
2024/03/26 12:02:44;;;;;;;1.50;1.40;;;11.70;92.30;;;;;;4959586;28;20956;-31
2024/03/26 12:05:12;;;;;;;3.20;1.90;;;11.70;92.20;;;;;;4982147;28;20438;-32
2024/03/26 12:07:40;;;;;;;2.87;1.80;;;11.70;92.20;;;;;;4980260;28;20455;-30
2024/03/26 12:10:11;;;;;;;2.33;1.70;;;11.70;92.20;;;;;;4980384;28;20464;-32
2024/03/26 12:12:39;;;;;;;6.00;1.77;;;11.80;92.20;;;;;;4965393;28;20457;-32
2024/03/26 12:15:07;;;;;;;2.40;2.10;;;11.80;92.30;;;;;;4995586;28;20476;-30
2024/03/26 12:17:34;;;;;;;2.60;2.10;;;11.80;92.30;;;;;;4979713;28;20537;-32
2024/03/26 12:20:00;;;;;;;2.63;2.03;;;11.80;92.20;;;;;;4998658;28;20429;-33
2024/03/26 12:22:28;;;;;;;1.97;1.77;;;11.80;92.20;;;;;;4986066;28;20944;-29
2024/03/26 12:24:54;;;;;;;5.53;2.47;;;11.80;92.20;;;;;;4979020;28;20468;-29
2024/03/26 12:27:20;;;;;;;3.10;1.70;;;11.90;92.20;;;;;;4979607;28;20441;-30
2024/03/26 12:29:50;;;;;;;2.97;1.90;;;11.90;92.20;;;;;;4981501;28;20428;-30
2024/03/26 12:32:25;;;;;;;2.50;2.00;;;11.90;92.20;;;;;;4983457;28;20678;-29
2024/03/26 12:34:53;;;;;;;3.10;1.90;;;11.90;92.20;;;;;;4984147;28;21133;-33
2024/03/26 12:37:26;;;;;;;2.37;2.00;;;11.90;92.20;;;;;;4965137;28;20449;-32
2024/03/26 12:39:52;;;;;;;2.10;1.90;;;12.00;92.30;;;;;;4984035;28;20428;-30
2024/03/26 12:42:18;;;;;;;2.00;1.80;;;12.00;92.30;;;;;;4982577;28;20436;-30
2024/03/26 12:44:47;;;;;;;1.90;1.60;;;12.00;92.30;;;;;;4981905;28;20461;-35
2024/03/26 12:47:12;;;;;;;6.83;2.03;;;12.00;92.30;;;;;;4981918;28;20435;-30
2024/03/26 12:49:39;;;;;;;3.13;1.93;;;12.00;92.30;;;;;;4983750;28;20460;-31